Time;durP1;ratioP1;P1;durP2;ratioP2;P2;SDS_P1;SDS_P2;PMS_P1;PMS_P2;Temp;Humidity;BMP_temperature;BMP_pressure;BME280_temperature;BME280_humidity;BME280_pressure;Samples;Min_cycle;Max_cycle;Signal;HPM_P1;HPM_P2
2021/09/24 00:01:43;;;;;;;;;;;;;;;18.61;58.10;101607.53;5073589;28;19928;-61
2021/09/24 00:04:12;;;;;;;;;;;;;;;18.60;58.17;101608.50;5073504;28;19924;-64
2021/09/24 00:06:42;;;;;;;;;;;;;;;18.58;58.23;101605.13;5073434;28;19938;-61
2021/09/24 00:09:09;;;;;;;;;;;;;;;18.56;58.44;101601.72;5073475;28;19925;-61
2021/09/24 00:11:37;;;;;;;;;;;;;;;18.57;58.29;101598.94;5073310;28;19924;-61
2021/09/24 00:14:04;;;;;;;;;;;;;;;18.57;58.21;101604.28;5073588;28;19924;-61
2021/09/24 00:16:31;;;;;;;;;;;;;;;18.57;58.35;101595.47;5073434;28;19928;-61
2021/09/24 00:18:58;;;;;;;;;;;;;;;18.55;58.21;101590.28;5073386;28;20450;-62
2021/09/24 00:21:24;;;;;;;;;;;;;;;18.53;58.46;101586.88;5073196;28;19931;-61
2021/09/24 00:23:51;;;;;;;;;;;;;;;18.48;58.68;101588.19;5073049;28;20273;-61
2021/09/24 00:26:17;;;;;;;;;;;;;;;18.49;58.58;101589.91;5073114;28;19986;-64
2021/09/24 00:28:44;;;;;;;;;;;;;;;18.51;58.48;101587.94;5073291;28;19932;-61
2021/09/24 00:31:10;;;;;;;;;;;;;;;18.51;58.49;101586.16;5073281;28;19925;-62
2021/09/24 00:33:37;;;;;;;;;;;;;;;18.51;58.21;101579.97;5073146;28;20361;-62
2021/09/24 00:36:03;;;;;;;;;;;;;;;18.52;58.25;101579.03;5073014;28;19924;-61
2021/09/24 00:38:30;;;;;;;;;;;;;;;18.48;58.25;101574.91;5073001;28;19925;-61
2021/09/24 00:40:56;;;;;;;;;;;;;;;18.44;58.70;101576.97;5072898;28;19924;-61
2021/09/24 00:43:23;;;;;;;;;;;;;;;18.41;58.63;101569.19;5072861;28;19925;-61
2021/09/24 00:45:49;;;;;;;;;;;;;;;18.36;58.47;101577.53;5073072;28;19925;-61
2021/09/24 00:48:16;;;;;;;;;;;;;;;18.34;58.40;101573.31;5072930;28;19928;-61
2021/09/24 00:50:42;;;;;;;;;;;;;;;18.32;58.83;101573.44;5072772;28;19924;-62
2021/09/24 00:53:10;;;;;;;;;;;;;;;18.31;58.77;101577.06;5072944;28;19978;-61
2021/09/24 00:55:37;;;;;;;;;;;;;;;18.23;58.88;101574.13;5072619;28;20035;-65
2021/09/24 00:58:04;;;;;;;;;;;;;;;18.20;58.57;101571.72;5072824;28;19924;-61
2021/09/24 01:00:31;;;;;;;;;;;;;;;18.21;58.69;101570.75;5072755;28;20360;-61
2021/09/24 01:02:58;;;;;;;;;;;;;;;18.19;58.69;101562.03;5072729;28;19925;-62
2021/09/24 01:05:24;;;;;;;;;;;;;;;18.16;58.76;101564.94;5072784;28;19924;-61
2021/09/24 01:07:51;;;;;;;;;;;;;;;18.16;58.61;101563.13;5072542;28;19929;-61
2021/09/24 01:10:17;;;;;;;;;;;;;;;18.11;58.88;101568.78;5072506;28;19957;-62
2021/09/24 01:12:44;;;;;;;;;;;;;;;18.09;58.54;101562.75;5072700;28;19931;-61
2021/09/24 01:15:12;;;;;;;;;;;;;;;18.09;58.49;101562.75;5072740;28;19929;-62
2021/09/24 01:17:39;;;;;;;;;;;;;;;18.09;58.57;101569.84;5072435;28;20373;-62
2021/09/24 01:20:07;;;;;;;;;;;;;;;18.04;58.58;101556.06;5072529;28;19924;-61
2021/09/24 01:22:33;;;;;;;;;;;;;;;18.03;58.61;101557.03;5072496;28;20018;-61
2021/09/24 01:25:00;;;;;;;;;;;;;;;18.01;58.97;101553.66;5072629;28;20301;-61
2021/09/24 01:27:26;;;;;;;;;;;;;;;18.00;58.57;101544.00;5072616;28;19924;-61
2021/09/24 01:29:55;;;;;;;;;;;;;;;17.99;58.70;101545.81;5072262;28;19924;-61
2021/09/24 01:32:22;;;;;;;;;;;;;;;17.99;59.13;101548.47;5072424;28;19929;-61
2021/09/24 01:34:49;;;;;;;;;;;;;;;17.95;58.79;101539.88;5072603;28;19966;-61
2021/09/24 01:37:16;;;;;;;;;;;;;;;17.94;58.68;101542.63;5072353;28;19925;-61
2021/09/24 01:39:42;;;;;;;;;;;;;;;17.94;58.91;101537.31;5071515;28;19925;-61
2021/09/24 01:42:09;;;;;;;;;;;;;;;17.93;58.73;101538.28;5072504;28;19925;-61
2021/09/24 01:44:36;;;;;;;;;;;;;;;17.94;58.71;101529.34;5072218;28;20383;-61
2021/09/24 01:47:02;;;;;;;;;;;;;;;17.94;58.98;101529.34;5078099;28;19924;-61
2021/09/24 01:49:29;;;;;;;;;;;;;;;17.93;59.17;101527.66;5092516;28;19932;-61
2021/09/24 01:51:55;;;;;;;;;;;;;;;17.90;59.11;101528.72;5092526;28;20364;-61
2021/09/24 01:54:22;;;;;;;;;;;;;;;17.93;59.15;101530.31;5092466;28;20376;-61
2021/09/24 01:56:48;;;;;;;;;;;;;;;17.90;59.07;101528.72;5092304;28;19978;-62
2021/09/24 01:59:15;;;;;;;;;;;;;;;17.93;59.12;101519.69;5092640;28;19924;-61
2021/09/24 02:01:41;;;;;;;;;;;;;;;17.90;59.47;101531.38;5092251;28;19928;-63
2021/09/24 02:04:08;;;;;;;;;;;;;;;17.87;59.04;101534.25;5075291;28;19948;-62
2021/09/24 02:06:35;;;;;;;;;;;;;;;17.84;59.15;101523.88;5072009;28;19995;-61
2021/09/24 02:09:01;;;;;;;;;;;;;;;17.84;59.33;101528.31;5072112;28;20385;-61
2021/09/24 02:11:28;;;;;;;;;;;;;;;17.81;59.34;101531.22;5072088;28;19931;-61
2021/09/24 02:13:54;;;;;;;;;;;;;;;17.78;59.29;101527.81;5072214;28;19925;-62
2021/09/24 02:16:21;;;;;;;;;;;;;;;17.73;59.32;101524.66;5072133;28;20327;-61
2021/09/24 02:18:47;;;;;;;;;;;;;;;17.71;59.53;101523.97;5072236;28;19932;-61
2021/09/24 02:21:14;;;;;;;;;;;;;;;17.69;59.36;101525.03;5074836;28;20292;-61
2021/09/24 02:23:40;;;;;;;;;;;;;;;17.69;59.49;101536.47;5075348;28;19983;-61
2021/09/24 02:26:07;;;;;;;;;;;;;;;17.65;59.26;101529.72;5075510;28;19994;-61
2021/09/24 02:28:33;;;;;;;;;;;;;;;17.60;59.60;101532.69;5075384;28;20472;-61
2021/09/24 02:31:00;;;;;;;;;;;;;;;17.57;59.35;101537.38;5075595;28;20328;-61
2021/09/24 02:33:27;;;;;;;;;;;;;;;17.52;59.23;101535.09;5075359;28;19924;-61
2021/09/24 02:35:53;;;;;;;;;;;;;;;17.49;59.75;101537.13;5075375;28;19925;-62
2021/09/24 02:38:20;;;;;;;;;;;;;;;17.46;59.61;101544.31;5075213;28;19931;-60
2021/09/24 02:40:47;;;;;;;;;;;;;;;17.45;59.74;101533.84;5075281;28;19925;-62
2021/09/24 02:43:13;;;;;;;;;;;;;;;17.43;59.79;101541.03;5075167;28;20368;-61
2021/09/24 02:45:39;;;;;;;;;;;;;;;17.35;59.59;101538.97;5074963;28;19978;-62
2021/09/24 02:48:06;;;;;;;;;;;;;;;17.33;59.47;101543.53;5075177;28;20398;-64
2021/09/24 02:50:33;;;;;;;;;;;;;;;17.27;59.72;101534.22;5074939;28;19931;-61
2021/09/24 02:52:59;;;;;;;;;;;;;;;17.25;59.76;101533.47;5074899;28;20385;-61
2021/09/24 02:55:25;;;;;;;;;;;;;;;17.11;60.50;101537.09;5074801;28;19928;-62
2021/09/24 02:57:52;;;;;;;;;;;;;;;17.13;60.06;101531.72;5074890;28;19935;-61
2021/09/24 03:00:19;;;;;;;;;;;;;;;17.13;60.33;101532.56;5074605;28;20381;-61
2021/09/24 03:02:45;;;;;;;;;;;;;;;17.11;60.10;101534.47;5076562;28;20288;-61
2021/09/24 03:05:12;;;;;;;;;;;;;;;17.13;60.11;101531.72;5091887;28;19928;-61
2021/09/24 03:07:39;;;;;;;;;;;;;;;17.11;60.27;101529.16;5091443;28;19924;-60
2021/09/24 03:10:05;;;;;;;;;;;;;;;17.10;60.30;101529.28;5091529;28;20372;-61
2021/09/24 03:12:32;;;;;;;;;;;;;;;17.07;60.23;101535.66;5087063;28;19981;-60
2021/09/24 03:14:58;;;;;;;;;;;;;;;17.05;60.09;101534.06;5071181;28;19925;-61
2021/09/24 03:17:25;;;;;;;;;;;;;;;17.03;60.34;101534.19;5071014;28;19924;-61
2021/09/24 03:19:51;;;;;;;;;;;;;;;17.03;60.23;101539.47;5071394;28;19925;-61
2021/09/24 03:22:18;;;;;;;;;;;;;;;17.01;60.03;101541.38;5071007;28;19924;-61
2021/09/24 03:24:45;;;;;;;;;;;;;;;16.97;60.31;101540.75;5070993;28;19930;-61
2021/09/24 03:27:12;;;;;;;;;;;;;;;16.96;60.20;101540.88;5071180;28;19977;-61
2021/09/24 03:29:43;;;;;;;;;;;;;;;16.93;60.17;101541.09;5070972;28;19924;-60
2021/09/24 03:32:29;;;;;;;;;;;;;;;16.92;59.91;101537.56;5070307;28;19925;-60
2021/09/24 03:35:06;;;;;;;;;;;;;;;16.90;60.38;101536.81;5071181;28;19935;-60
2021/09/24 03:37:36;;;;;;;;;;;;;;;16.92;60.12;101528.78;5069316;28;19924;-60
2021/09/24 03:40:03;;;;;;;;;;;;;;;16.91;59.83;101527.94;5070801;28;19939;-61
2021/09/24 03:42:29;;;;;;;;;;;;;;;16.90;60.13;101525.34;5070690;28;20387;-61
2021/09/24 03:44:56;;;;;;;;;;;;;;;16.89;59.89;101523.69;5070692;28;19950;-62
2021/09/24 03:47:22;;;;;;;;;;;;;;;16.87;59.84;101526.41;5070608;28;20278;-61
2021/09/24 03:49:48;;;;;;;;;;;;;;;16.89;59.88;101526.34;5081304;28;19993;-63
2021/09/24 03:52:18;;;;;;;;;;;;;;;16.89;59.84;101529.00;5075085;28;20349;-61
2021/09/24 03:54:45;;;;;;;;;;;;;;;16.91;60.15;101529.75;5070531;28;19935;-61
2021/09/24 03:57:11;;;;;;;;;;;;;;;16.90;60.03;101534.16;5070580;28;20117;-60
2021/09/24 03:59:38;;;;;;;;;;;;;;;16.90;60.23;101534.16;5070301;28;19924;-61
2021/09/24 04:02:04;;;;;;;;;;;;;;;16.96;60.13;101540.88;5086389;28;19997;-60
2021/09/24 04:04:31;;;;;;;;;;;;;;;16.95;60.19;101540.03;5090358;28;19931;-61
2021/09/24 04:06:57;;;;;;;;;;;;;;;16.92;60.36;101539.41;5090405;28;20426;-61
2021/09/24 04:09:24;;;;;;;;;;;;;;;16.93;60.49;101543.75;5076590;28;19970;-61
2021/09/24 04:11:50;;;;;;;;;;;;;;;16.94;60.27;101542.78;5069967;28;19925;-61
2021/09/24 04:14:17;;;;;;;;;;;;;;;16.94;60.18;101546.28;5070266;28;19947;-60
2021/09/24 04:16:43;;;;;;;;;;;;;;;16.91;60.54;101543.84;5070478;28;19932;-61
2021/09/24 04:19:10;;;;;;;;;;;;;;;16.89;60.58;101551.03;5070047;28;19928;-61
2021/09/24 04:21:36;;;;;;;;;;;;;;;16.86;60.57;101545.97;5083412;28;19985;-61
2021/09/24 04:24:03;;;;;;;;;;;;;;;16.79;60.55;101542.88;5088983;28;19951;-61
2021/09/24 04:26:29;;;;;;;;;;;;;;;16.76;60.45;101553.69;5069926;28;19928;-64
2021/09/24 04:28:56;;;;;;;;;;;;;;;16.74;60.57;101552.94;5070003;28;19928;-63
2021/09/24 04:31:23;;;;;;;;;;;;;;;16.72;60.54;101551.34;5069857;28;20293;-63
2021/09/24 04:33:50;;;;;;;;;;;;;;;16.67;61.02;101550.84;5069783;28;19974;-63
2021/09/24 04:36:16;;;;;;;;;;;;;;;16.64;60.71;101549.25;5069891;28;19924;-63
2021/09/24 04:38:43;;;;;;;;;;;;;;;16.61;60.87;101550.31;5069773;28;19928;-63
2021/09/24 04:41:09;;;;;;;;;;;;;;;16.59;60.71;101554.03;5069825;28;19974;-62
2021/09/24 04:43:36;;;;;;;;;;;;;;;16.57;60.98;101546.19;5069034;28;19925;-63
2021/09/24 04:46:02;;;;;;;;;;;;;;;16.55;60.71;101555.19;5069767;28;19932;-63
2021/09/24 04:48:31;;;;;;;;;;;;;;;16.57;60.57;101551.47;5069704;28;19931;-62
2021/09/24 04:50:58;;;;;;;;;;;;;;;16.58;60.59;101549.66;5077213;28;19950;-62
2021/09/24 04:53:24;;;;;;;;;;;;;;;16.58;60.69;101547.03;5089782;28;19924;-62
2021/09/24 04:55:51;;;;;;;;;;;;;;;16.59;60.72;101546.06;5089314;28;19978;-63
2021/09/24 04:58:17;;;;;;;;;;;;;;;16.59;60.61;101544.25;5085649;28;19928;-61
2021/09/24 05:00:45;;;;;;;;;;;;;;;16.60;60.74;101545.13;5086956;28;19924;-62
2021/09/24 05:03:12;;;;;;;;;;;;;;;16.59;60.72;101544.25;5089451;28;19924;-62
2021/09/24 05:05:38;;;;;;;;;;;;;;;16.54;60.68;101543.72;5089232;28;20365;-62
2021/09/24 05:08:05;;;;;;;;;;;;;;;16.54;60.79;101546.38;5089370;28;19981;-63
2021/09/24 05:10:32;;;;;;;;;;;;;;;16.54;60.78;101548.19;5089265;28;20345;-62
2021/09/24 05:12:58;;;;;;;;;;;;;;;16.47;60.94;101556.56;5089450;28;19975;-63
2021/09/24 05:15:25;;;;;;;;;;;;;;;16.46;60.83;101554.84;5088914;28;19928;-62
2021/09/24 05:17:51;;;;;;;;;;;;;;;16.51;60.89;101556.38;5089517;28;19978;-63
2021/09/24 05:20:17;;;;;;;;;;;;;;;16.49;60.68;101557.31;5089449;28;19977;-64
2021/09/24 05:22:44;;;;;;;;;;;;;;;16.52;60.44;101553.59;5089368;28;19924;-62
2021/09/24 05:25:11;;;;;;;;;;;;;;;16.53;60.73;101559.75;5086260;28;19948;-62
2021/09/24 05:27:37;;;;;;;;;;;;;;;16.52;60.44;101558.91;5069556;28;19928;-61
2021/09/24 05:30:04;;;;;;;;;;;;;;;16.51;60.80;101564.31;5088629;28;19932;-62
2021/09/24 05:32:31;;;;;;;;;;;;;;;16.53;60.56;101571.22;5088787;28;19931;-66
2021/09/24 05:34:58;;;;;;;;;;;;;;;16.51;60.35;101567.81;5088823;28;19978;-62
2021/09/24 05:37:24;;;;;;;;;;;;;;;16.51;60.99;101565.16;5088911;28;20433;-64
2021/09/24 05:39:51;;;;;;;;;;;;;;;16.52;60.74;101572.16;5089584;28;20409;-62
2021/09/24 05:42:17;;;;;;;;;;;;;;;16.55;60.49;101569.28;5085600;28;19975;-63
2021/09/24 05:44:43;;;;;;;;;;;;;;;16.60;60.40;101568.97;5069010;28;19932;-62
2021/09/24 05:47:10;;;;;;;;;;;;;;;16.66;60.60;101563.25;5068964;28;19932;-62
2021/09/24 05:49:36;;;;;;;;;;;;;;;16.76;60.20;101577.56;5068871;28;19932;-63
2021/09/24 05:52:03;;;;;;;;;;;;;;;16.75;60.36;101577.66;5076002;28;19994;-62
2021/09/24 05:54:30;;;;;;;;;;;;;;;16.85;60.13;101578.72;5088496;28;19924;-62
2021/09/24 05:56:56;;;;;;;;;;;;;;;16.90;60.08;101581.03;5092322;28;19924;-62
2021/09/24 05:59:23;;;;;;;;;;;;;;;16.93;60.17;101580.88;5089912;28;19935;-63
2021/09/24 06:01:50;;;;;;;;;;;;;;;16.97;60.31;101580.53;5092418;28;20048;-62
2021/09/24 06:04:19;;;;;;;;;;;;;;;17.01;60.53;101581.16;5092112;28;20856;-62
2021/09/24 06:06:46;;;;;;;;;;;;;;;17.04;60.12;101562.41;5089712;28;19975;-63
2021/09/24 06:09:12;;;;;;;;;;;;;;;17.07;60.13;101567.47;5090681;28;19935;-63
2021/09/24 06:11:39;;;;;;;;;;;;;;;17.11;60.06;101571.59;5090877;28;19935;-63
2021/09/24 06:14:05;;;;;;;;;;;;;;;17.12;60.10;101570.63;5091825;28;19946;-63
2021/09/24 06:16:36;;;;;;;;;;;;;;;17.19;60.11;101567.56;5091754;28;20319;-62
2021/09/24 06:19:02;;;;;;;;;;;;;;;17.21;60.08;101563.81;5091895;28;19932;-63
2021/09/24 06:21:29;;;;;;;;;;;;;;;17.25;59.97;101567.13;5091435;28;19937;-63
2021/09/24 06:23:55;;;;;;;;;;;;;;;17.25;60.14;101565.28;5091942;28;19935;-64
2021/09/24 06:26:22;;;;;;;;;;;;;;;17.29;60.19;101568.56;5086400;28;20326;-62
2021/09/24 06:28:49;;;;;;;;;;;;;;;17.34;59.95;101565.59;5083179;28;19924;-62
2021/09/24 06:31:15;;;;;;;;;;;;;;;17.37;59.98;101558.28;5097473;28;20320;-63
2021/09/24 06:33:42;;;;;;;;;;;;;;;17.41;59.74;101559.75;5091378;28;20366;-62
2021/09/24 06:36:09;;;;;;;;;;;;;;;17.48;59.53;101554.81;5091693;28;19932;-62
2021/09/24 06:38:35;;;;;;;;;;;;;;;17.53;59.41;101567.78;5091245;28;19993;-63
2021/09/24 06:41:04;;;;;;;;;;;;;;;17.63;59.53;101564.31;5074503;28;20220;-63
2021/09/24 06:43:35;;;;;;;;;;;;;;;17.76;58.96;101568.72;5086529;28;20015;-62
2021/09/24 06:46:02;;;;;;;;;;;;;;;17.89;58.68;101564.22;5090977;28;19954;-62
2021/09/24 06:48:28;;;;;;;;;;;;;;;18.05;58.48;101569.22;5090711;28;19928;-62
2021/09/24 06:50:55;;;;;;;;;;;;;;;18.18;58.16;101568.31;5090616;28;20052;-62
2021/09/24 06:53:21;;;;;;;;;;;;;;;18.30;57.77;101572.69;5091006;28;20304;-61
2021/09/24 06:55:48;;;;;;;;;;;;;;;18.41;57.35;101564.75;5090806;28;19924;-61
2021/09/24 06:58:14;;;;;;;;;;;;;;;18.52;57.30;101573.72;5090832;28;19930;-62
2021/09/24 07:00:41;;;;;;;;;;;;;;;18.62;57.28;101574.69;5086715;28;20061;-60
2021/09/24 07:03:08;;;;;;;;;;;;;;;18.73;56.60;101580.00;5090993;28;19932;-60
2021/09/24 07:05:34;;;;;;;;;;;;;;;18.86;56.28;101569.25;5089756;28;19928;-61
2021/09/24 07:08:01;;;;;;;;;;;;;;;18.97;56.15;101570.25;5090671;28;19928;-60
2021/09/24 07:10:28;;;;;;;;;;;;;;;19.06;55.97;101569.53;5089512;28;19925;-61
2021/09/24 07:12:54;;;;;;;;;;;;;;;19.19;55.62;101569.41;5090855;28;19928;-61
2021/09/24 07:15:21;;;;;;;;;;;;;;;19.20;55.93;101566.59;5090026;28;19928;-61
2021/09/24 07:17:47;;;;;;;;;;;;;;;19.28;55.48;101567.81;5088254;28;19928;-60
2021/09/24 07:20:14;;;;;;;;;;;;;;;19.45;55.15;101575.25;5090325;28;19924;-60
2021/09/24 07:22:41;;;;;;;;;;;;;;;19.59;55.03;101571.47;5090415;28;19982;-60
2021/09/24 07:25:08;;;;;;;;;;;;;;;19.73;54.78;101581.00;5085829;28;20388;-60
2021/09/24 07:27:34;;;;;;;;;;;;;;;19.84;54.44;101570.31;5090228;28;19925;-62
2021/09/24 07:30:01;;;;;;;;;;;;;;;19.95;54.18;101574.78;5090127;28;19979;-61
2021/09/24 07:32:27;;;;;;;;;;;;;;;20.10;54.00;101574.44;5090790;28;19924;-61
2021/09/24 07:34:55;;;;;;;;;;;;;;;20.13;53.53;101576.88;5090663;28;20380;-61
2021/09/24 07:37:21;;;;;;;;;;;;;;;20.23;53.42;101577.78;5088435;28;20284;-61
2021/09/24 07:39:47;;;;;;;;;;;;;;;20.35;53.39;101576.75;5076966;28;19932;-61
2021/09/24 07:42:15;;;;;;;;;;;;;;;20.37;53.24;101582.78;5082267;28;19979;-61
2021/09/24 07:44:41;;;;;;;;;;;;;;;20.56;53.06;101582.03;5091105;28;19928;-60
2021/09/24 07:47:08;;;;;;;;;;;;;;;20.68;52.54;101574.84;5084665;28;19958;-62
2021/09/24 07:49:35;;;;;;;;;;;;;;;20.80;52.54;101575.59;5087018;28;19969;-65
2021/09/24 07:52:01;;;;;;;;;;;;;;;20.91;52.34;101577.31;5090223;28;19958;-62
2021/09/24 07:54:28;;;;;;;;;;;;;;;20.93;52.15;101580.72;5070467;28;19954;-63
2021/09/24 07:56:54;;;;;;;;;;;;;;;21.09;51.54;101579.34;5069558;28;19994;-65
2021/09/24 07:59:21;;;;;;;;;;;;;;;21.24;51.21;101580.66;5069889;28;20509;-63
2021/09/24 08:01:47;;;;;;;;;;;;;;;21.37;51.07;101578.59;5069668;28;19924;-64
2021/09/24 08:04:14;;;;;;;;;;;;;;;21.35;51.05;101583.22;5069573;28;20817;-62
2021/09/24 08:06:41;;;;;;;;;;;;;;;21.39;50.67;101581.13;5069503;28;20284;-63
2021/09/24 08:09:07;;;;;;;;;;;;;;;21.48;50.62;101587.47;5070028;28;19970;-63
2021/09/24 08:11:34;;;;;;;;;;;;;;;21.66;50.02;101587.66;5067780;28;20054;-62
2021/09/24 08:14:00;;;;;;;;;;;;;;;21.85;49.65;101579.66;5069258;28;20288;-63
2021/09/24 08:16:27;;;;;;;;;;;;;;;21.92;49.60;101587.13;5069348;28;20154;-63
2021/09/24 08:18:53;;;;;;;;;;;;;;;22.02;49.24;101580.78;5068861;28;19932;-63
2021/09/24 08:21:22;;;;;;;;;;;;;;;22.18;49.08;101582.88;5069219;28;19924;-62
2021/09/24 08:23:51;;;;;;;;;;;;;;;22.35;48.62;101578.63;5069432;28;19924;-62
2021/09/24 08:26:18;;;;;;;;;;;;;;;22.29;48.94;101584.53;5072420;28;19939;-63
2021/09/24 08:28:44;;;;;;;;;;;;;;;22.35;48.41;101581.28;5089414;28;19934;-63
2021/09/24 08:31:11;;;;;;;;;;;;;;;22.56;48.31;101579.47;5089458;28;20041;-62
2021/09/24 08:33:38;;;;;;;;;;;;;;;22.77;47.72;101581.94;5089230;28;19981;-62
2021/09/24 08:36:04;;;;;;;;;;;;;;;22.98;47.65;101581.69;5086550;28;19950;-63
2021/09/24 08:38:31;;;;;;;;;;;;;;;23.17;47.21;101579.94;5089186;28;20005;-62
2021/09/24 08:40:57;;;;;;;;;;;;;;;23.28;46.72;101579.75;5084242;28;19979;-62
2021/09/24 08:43:24;;;;;;;;;;;;;;;23.35;46.70;101578.16;5069237;28;19925;-63
2021/09/24 08:45:50;;;;;;;;;;;;;;;23.51;46.32;101579.31;5069458;28;19977;-63
2021/09/24 08:48:17;;;;;;;;;;;;;;;23.53;46.12;101575.50;5069352;28;19935;-62
2021/09/24 08:50:44;;;;;;;;;;;;;;;23.69;45.75;101572.09;5069089;28;19990;-62
2021/09/24 08:53:12;;;;;;;;;;;;;;;23.89;45.47;101572.78;5069267;28;20442;-63
2021/09/24 08:55:39;;;;;;;;;;;;;;;24.06;45.12;101565.78;5069353;28;19932;-67
2021/09/24 08:58:05;;;;;;;;;;;;;;;24.20;44.53;101569.72;5089285;28;19924;-62
2021/09/24 09:00:32;;;;;;;;;;;;;;;24.39;44.24;101567.81;5081609;28;19971;-62
2021/09/24 09:03:10;;;;;;;;;;;;;;;24.50;44.16;101575.59;5079874;28;19924;-63
2021/09/24 09:05:39;;;;;;;;;;;;;;;24.59;44.10;101560.41;5089409;28;19932;-63
2021/09/24 09:08:07;;;;;;;;;;;;;;;24.76;43.83;101566.75;5083082;28;19924;-63
2021/09/24 09:10:37;;;;;;;;;;;;;;;25.00;43.22;101557.94;5072453;28;19958;-63
2021/09/24 09:13:06;;;;;;;;;;;;;;;25.15;42.83;101557.31;5068963;28;19924;-63
2021/09/24 09:15:32;;;;;;;;;;;;;;;25.28;42.65;101552.31;5068981;28;20165;-63
2021/09/24 09:17:59;;;;;;;;;;;;;;;25.40;42.32;101551.00;5068924;28;19979;-63
2021/09/24 09:20:33;;;;;;;;;;;;;;;25.56;42.20;101546.66;5068300;28;19936;-63
2021/09/24 09:23:00;;;;;;;;;;;;;;;25.71;41.77;101550.41;5068501;28;19924;-63
2021/09/24 09:25:28;;;;;;;;;;;;;;;25.85;41.51;101551.56;5068669;28;19978;-63
2021/09/24 09:27:55;;;;;;;;;;;;;;;26.01;41.50;101541.81;5068641;28;20396;-63
2021/09/24 09:30:23;;;;;;;;;;;;;;;26.13;41.12;101553.09;5072008;28;19924;-63
2021/09/24 09:32:58;;;;;;;;;;;;;;;26.20;40.83;101546.84;5072581;28;19977;-63
2021/09/24 09:35:25;;;;;;;;;;;;;;;26.22;40.84;101544.84;5072906;28;20380;-63
2021/09/24 09:37:52;;;;;;;;;;;;;;;26.37;40.31;101544.13;5072753;28;19928;-63
2021/09/24 09:40:21;;;;;;;;;;;;;;;26.58;39.97;101540.06;5071972;28;19970;-63
2021/09/24 09:42:49;;;;;;;;;;;;;;;26.72;39.43;101539.31;5072343;28;19924;-64
2021/09/24 09:45:17;;;;;;;;;;;;;;;26.84;39.58;101547.88;5072474;28;20339;-63
2021/09/24 09:47:44;;;;;;;;;;;;;;;27.00;39.15;101545.09;5072640;28;19935;-63
2021/09/24 09:50:13;;;;;;;;;;;;;;;27.11;38.90;101538.50;5072363;28;19975;-63
2021/09/24 09:52:58;;;;;;;;;;;;;;;27.25;39.03;101539.59;5072329;28;19977;-63
2021/09/24 09:55:26;;;;;;;;;;;;;;;27.37;38.80;101535.44;5072343;28;19931;-63
2021/09/24 09:57:54;;;;;;;;;;;;;;;27.46;38.47;101535.44;5082042;28;20339;-63
2021/09/24 10:00:20;;;;;;;;;;;;;;;27.56;38.16;101530.63;5071977;28;19982;-63
2021/09/24 10:02:49;;;;;;;;;;;;;;;27.80;37.71;101521.50;5072454;28;19981;-63
2021/09/24 10:05:32;;;;;;;;;;;;;;;27.90;37.33;101526.66;5072019;28;19924;-63
2021/09/24 10:07:58;;;;;;;;;;;;;;;28.08;37.13;101515.53;5075164;28;19925;-63
2021/09/24 10:10:25;;;;;;;;;;;;;;;28.14;37.09;101517.50;5090283;28;19924;-64
2021/09/24 10:12:52;;;;;;;;;;;;;;;28.18;37.08;101520.66;5086216;28;19978;-63
2021/09/24 10:15:19;;;;;;;;;;;;;;;28.34;36.75;101511.53;5071659;28;19928;-63
2021/09/24 10:17:45;;;;;;;;;;;;;;;28.32;37.09;101506.34;5071525;28;20287;-63
2021/09/24 10:20:14;;;;;;;;;;;;;;;28.46;36.34;101506.53;5071456;28;19928;-63
2021/09/24 10:22:41;;;;;;;;;;;;;;;28.54;36.23;101511.00;5071128;28;19933;-63
2021/09/24 10:25:08;;;;;;;;;;;;;;;28.61;36.31;101503.81;5071654;28;19924;-63
2021/09/24 10:27:36;;;;;;;;;;;;;;;28.77;35.83;101510.88;5071440;28;19990;-63
2021/09/24 10:30:16;;;;;;;;;;;;;;;28.71;35.93;101504.41;5071361;28;19928;-63
2021/09/24 10:33:00;;;;;;;;;;;;;;;28.78;35.92;101516.09;5071591;28;19986;-63
2021/09/24 10:35:47;;;;;;;;;;;;;;;28.91;35.54;101510.03;5071387;28;19924;-63
2021/09/24 10:38:14;;;;;;;;;;;;;;;29.02;35.37;101492.47;5071982;28;19936;-63
2021/09/24 10:41:05;;;;;;;;;;;;;;;29.21;35.07;101501.00;5069928;28;19928;-63
2021/09/24 10:43:45;;;;;;;;;;;;;;;29.27;35.39;101503.75;5082600;28;20436;-63
2021/09/24 10:46:32;;;;;;;;;;;;;;;29.23;35.31;101497.06;5088372;28;20291;-63
2021/09/24 10:49:27;;;;;;;;;;;;;;;29.31;34.94;101491.56;5087361;28;19977;-63
2021/09/24 10:52:05;;;;;;;;;;;;;;;29.14;35.56;101488.25;5076998;28;19930;-61
2021/09/24 10:54:32;;;;;;;;;;;;;;;29.28;35.34;101491.09;5075395;28;19928;-63
2021/09/24 10:56:59;;;;;;;;;;;;;;;29.57;34.91;101486.59;5070975;28;19974;-64
2021/09/24 10:59:29;;;;;;;;;;;;;;;29.80;34.11;101486.34;5070921;28;20335;-64
2021/09/24 11:01:57;;;;;;;;;;;;;;;29.79;34.04;101481.97;5070181;28;20377;-64
2021/09/24 11:04:43;;;;;;;;;;;;;;;29.98;33.69;101483.19;5070726;28;19935;-64
2021/09/24 11:07:10;;;;;;;;;;;;;;;30.11;33.49;101474.31;5069388;28;19970;-64
2021/09/24 11:09:50;;;;;;;;;;;;;;;30.20;33.58;101473.09;5069753;28;19974;-64
2021/09/24 11:12:17;;;;;;;;;;;;;;;30.19;33.30;101471.44;5070576;28;20372;-64
2021/09/24 11:14:43;;;;;;;;;;;;;;;30.15;33.94;101469.34;5072900;28;19936;-62
2021/09/24 11:17:11;;;;;;;;;;;;;;;30.04;33.92;101470.72;5079633;28;19924;-62
2021/09/24 11:19:38;;;;;;;;;;;;;;;29.62;34.57;101465.19;5071832;28;20360;-63
2021/09/24 11:22:04;;;;;;;;;;;;;;;29.85;33.97;101461.41;5075888;28;19936;-64
2021/09/24 11:24:36;;;;;;;;;;;;;;;29.68;34.47;101467.13;5090343;28;20294;-62
2021/09/24 11:27:08;;;;;;;;;;;;;;;29.80;34.25;101459.28;5090642;28;20421;-63
2021/09/24 11:29:39;;;;;;;;;;;;;;;29.50;34.42;101459.50;5075132;28;19929;-63
2021/09/24 11:32:10;;;;;;;;;;;;;;;29.67;34.47;101448.38;5090584;28;19928;-62
2021/09/24 11:34:40;;;;;;;;;;;;;;;29.79;34.20;101454.94;5089963;28;19932;-63
2021/09/24 11:37:46;;;;;;;;;;;;;;;29.80;34.48;101441.19;5085216;28;19981;-63
2021/09/24 11:40:15;;;;;;;;;;;;;;;29.94;34.43;101441.28;5067486;28;19925;-63
2021/09/24 11:42:46;;;;;;;;;;;;;;;30.17;33.78;101432.91;5084071;28;20011;-63
2021/09/24 11:45:14;;;;;;;;;;;;;;;30.08;33.77;101432.25;5090834;28;19932;-63
2021/09/24 11:47:43;;;;;;;;;;;;;;;29.82;34.26;101424.75;5089963;28;20338;-63
2021/09/24 11:50:11;;;;;;;;;;;;;;;29.92;34.35;101419.84;5089598;28;19924;-63
2021/09/24 11:52:41;;;;;;;;;;;;;;;30.18;34.14;101425.59;5089617;28;19928;-63
2021/09/24 11:55:15;;;;;;;;;;;;;;;30.30;33.70;101419.41;5082784;28;19928;-64
2021/09/24 11:57:53;;;;;;;;;;;;;;;30.39;33.58;101424.66;5087036;28;19924;-62
2021/09/24 12:00:19;;;;;;;;;;;;;;;30.32;34.08;101427.34;5089003;28;20399;-60
2021/09/24 12:02:46;;;;;;;;;;;;;;;30.35;33.95;101416.13;5089164;28;19985;-59
2021/09/24 12:05:13;;;;;;;;;;;;;;;30.46;33.58;101417.38;5089563;28;20034;-60
2021/09/24 12:07:48;;;;;;;;;;;;;;;30.42;33.88;101411.56;5087086;28;20354;-60
2021/09/24 12:10:15;;;;;;;;;;;;;;;30.35;33.70;101407.13;5088506;28;20392;-60
2021/09/24 12:12:44;;;;;;;;;;;;;;;30.51;33.80;101414.94;5087228;28;19935;-59
2021/09/24 12:15:11;;;;;;;;;;;;;;;30.65;33.53;101406.84;5089102;28;19996;-60
2021/09/24 12:17:37;;;;;;;;;;;;;;;30.67;33.51;101411.03;5089247;28;19934;-59
2021/09/24 12:20:04;;;;;;;;;;;;;;;30.71;33.30;101403.34;5089372;28;19928;-60
2021/09/24 12:22:30;;;;;;;;;;;;;;;30.84;32.99;101402.53;5089310;28;19980;-61
2021/09/24 12:24:57;;;;;;;;;;;;;;;30.91;32.80;101393.34;5089410;28;19932;-61
2021/09/24 12:27:25;;;;;;;;;;;;;;;30.94;32.71;101387.53;5088799;28;19924;-59
2021/09/24 12:29:53;;;;;;;;;;;;;;;30.95;32.88;101391.91;5089353;28;19928;-60
2021/09/24 12:32:23;;;;;;;;;;;;;;;30.82;33.08;101393.75;5086389;28;19924;-61
2021/09/24 12:34:59;;;;;;;;;;;;;;;30.98;32.69;101387.13;5087276;28;19984;-61
2021/09/24 12:37:36;;;;;;;;;;;;;;;31.07;32.63;101396.72;5089875;28;19924;-61
2021/09/24 12:40:07;;;;;;;;;;;;;;;31.20;32.52;101388.63;5089977;28;19935;-60